createdAt,value
2022-09-23T00:02:09.814Z,13.82
2022-09-23T00:07:09.187Z,13.98
2022-09-23T00:12:14.991Z,13.76
2022-09-23T00:17:14.385Z,13.69
2022-09-23T00:22:16.875Z,13.66
2022-09-23T00:27:16.379Z,13.35
2022-09-23T00:32:18.726Z,13.52
2022-09-23T00:37:25.073Z,13.62
2022-09-23T00:42:35.135Z,13.21
2022-09-23T00:47:59.236Z,13.36
2022-09-23T00:58:44.957Z,12.57
2022-09-23T01:03:50.252Z,12.88
2022-09-23T01:08:50.382Z,13.21
2022-09-23T01:14:16.969Z,13.21
2022-09-23T01:19:37.078Z,13.14
2022-09-23T01:24:59.747Z,12.87
2022-09-23T01:30:07.047Z,12.70
2022-09-23T01:35:04.652Z,12.48
2022-09-23T01:40:33.350Z,12.28
2022-09-23T01:45:35.864Z,12.13
2022-09-23T01:51:04.196Z,12.06
2022-09-23T01:56:09.661Z,11.85
2022-09-23T02:01:21.955Z,11.54
2022-09-23T02:06:30.505Z,11.34
2022-09-23T02:11:32.370Z,11.44
2022-09-23T02:16:40.304Z,11.04
2022-09-23T02:21:47.491Z,10.96
2022-09-23T02:26:51.425Z,11.66
2022-09-23T02:32:05.220Z,11.69
2022-09-23T02:37:28.945Z,11.73
2022-09-23T02:42:52.197Z,11.81
2022-09-23T02:47:57.759Z,11.96
2022-09-23T02:52:56.449Z,11.84
2022-09-23T02:57:55.508Z,11.85
2022-09-23T03:03:33.528Z,11.91
2022-09-23T03:08:53.914Z,11.83
2022-09-23T03:14:08.032Z,11.95
2022-09-23T03:19:45.431Z,12.08
2022-09-23T03:24:49.721Z,11.72
2022-09-23T03:29:56.177Z,11.97
2022-09-23T03:34:56.761Z,11.93
2022-09-23T03:40:12.040Z,12.01
2022-09-23T03:45:13.184Z,11.83
2022-09-23T03:50:17.689Z,11.82
2022-09-23T03:55:17.283Z,11.12
2022-09-23T04:00:15.487Z,10.85
2022-09-23T04:05:15.183Z,10.80
2022-09-23T04:10:17.032Z,11.26
2022-09-23T04:15:18.808Z,11.58
2022-09-23T04:20:19.182Z,11.73
2022-09-23T04:25:21.383Z,11.60
2022-09-23T04:30:24.923Z,11.38
2022-09-23T04:35:23.309Z,11.55
2022-09-23T04:40:25.054Z,11.45
2022-09-23T04:45:24.041Z,11.57
2022-09-23T04:50:28.376Z,11.63
2022-09-23T04:55:27.146Z,11.79
2022-09-23T05:00:28.851Z,11.95
2022-09-23T05:05:29.898Z,11.52
2022-09-23T05:10:28.437Z,11.53
2022-09-23T05:15:27.965Z,11.77
2022-09-23T05:20:30.397Z,11.89
2022-09-23T05:25:36.288Z,11.93
2022-09-23T05:30:39.537Z,12.32
2022-09-23T05:35:51.524Z,12.73
2022-09-23T05:40:57.968Z,12.88
2022-09-23T05:46:14.407Z,12.53
2022-09-23T05:51:20.330Z,12.68
2022-09-23T05:56:19.900Z,12.94
2022-09-23T06:01:21.324Z,13.20
2022-09-23T06:06:21.697Z,13.05
2022-09-23T06:11:23.227Z,13.40
2022-09-23T06:16:20.928Z,13.62
2022-09-23T06:21:20.890Z,14.03
2022-09-23T06:26:21.252Z,14.44
2022-09-23T06:31:21.885Z,15.02
2022-09-23T06:36:38.851Z,14.83
2022-09-23T06:41:44.852Z,14.97
2022-09-23T06:46:46.888Z,14.63
2022-09-23T06:51:45.392Z,14.32
2022-09-23T06:56:47.743Z,14.62
2022-09-23T07:01:50.801Z,14.40
2022-09-23T07:06:49.162Z,13.64
2022-09-23T07:11:50.711Z,13.23
2022-09-23T07:16:54.110Z,13.65
2022-09-23T07:21:52.571Z,13.33
2022-09-23T07:26:58.307Z,13.40
2022-09-23T07:32:11.046Z,13.13
2022-09-23T07:37:23.605Z,13.21
2022-09-23T07:42:24.775Z,12.94
2022-09-23T07:47:28.091Z,12.86
2022-09-23T07:52:28.853Z,12.98
2022-09-23T07:57:31.027Z,12.92
2022-09-23T08:02:31.706Z,13.14
2022-09-23T08:07:34.740Z,13.52
2022-09-23T08:12:37.337Z,13.65
2022-09-23T08:17:39.038Z,13.03
2022-09-23T08:22:42.941Z,13.34
2022-09-23T08:27:50.468Z,13.76
2022-09-23T08:32:54.219Z,14.14
2022-09-23T08:37:53.839Z,13.73
2022-09-23T08:42:57.260Z,13.89
2022-09-23T08:48:00.959Z,14.30
2022-09-23T08:53:03.772Z,14.64
2022-09-23T08:58:24.980Z,14.38
2022-09-23T09:03:26.936Z,14.58
2022-09-23T09:08:40.837Z,14.63
2022-09-23T09:14:44.277Z,14.35
2022-09-23T09:20:27.391Z,14.79
2022-09-23T09:25:53.014Z,14.78
2022-09-23T09:30:54.701Z,14.69
2022-09-23T09:36:32.981Z,14.46
2022-09-23T09:41:34.207Z,14.77
2022-09-23T09:47:13.140Z,14.56
2022-09-23T09:52:12.365Z,14.59
2022-09-23T09:57:25.410Z,14.83
2022-09-23T10:02:32.542Z,14.68
2022-09-23T10:07:36.377Z,14.90
2022-09-23T10:12:59.502Z,14.73
2022-09-23T10:18:02.342Z,14.78
2022-09-23T10:23:06.788Z,15.23
2022-09-23T10:28:31.402Z,15.16
2022-09-23T10:33:32.677Z,15.45
2022-09-23T10:38:34.849Z,14.94
2022-09-23T10:44:07.967Z,15.59
2022-09-23T10:49:44.341Z,15.79
2022-09-23T10:55:19.801Z,15.95
2022-09-23T11:00:42.894Z,16.25
2022-09-23T11:06:01.901Z,16.11
2022-09-23T11:11:26.893Z,16.57
2022-09-23T11:16:53.123Z,16.77
2022-09-23T11:22:05.444Z,16.99
2022-09-23T11:27:20.511Z,17.02
2022-09-23T11:38:52.582Z,17.09
2022-09-23T11:44:44.134Z,17.24
2022-09-23T11:50:12.977Z,17.39
2022-09-23T11:56:00.783Z,17.54
2022-09-23T12:01:35.325Z,17.66
2022-09-23T12:07:37.315Z,17.47
2022-09-23T12:13:41.800Z,17.79
2022-09-23T12:25:38.059Z,18.16
2022-09-23T12:30:39.602Z,18.25
2022-09-23T12:35:51.201Z,18.42
2022-09-23T12:40:57.626Z,18.53
2022-09-23T12:46:37.270Z,18.44
2022-09-23T12:52:19.380Z,18.69
2022-09-23T12:57:40.478Z,18.92
2022-09-23T13:03:54.923Z,19.07
2022-09-23T13:08:56.696Z,19.11
2022-09-23T13:14:11.754Z,19.19
2022-09-23T13:19:42.727Z,19.61
2022-09-23T13:24:48.590Z,19.75
2022-09-23T13:30:13.185Z,19.75
2022-09-23T13:35:34.275Z,19.95
2022-09-23T13:41:04.752Z,19.92
2022-09-23T13:46:50.771Z,20.38
2022-09-23T13:53:13.762Z,21.01
2022-09-23T13:59:11.914Z,21.39
2022-09-23T14:03:40.533Z,20.88
2022-09-23T14:08:42.345Z,21.47
2022-09-23T14:14:28.841Z,22.26
2022-09-23T14:20:17.654Z,22.84
2022-09-23T14:31:35.383Z,23.37
2022-09-23T14:43:32.765Z,21.27
2022-09-23T14:48:40.039Z,20.75
2022-09-23T14:53:44.701Z,19.83
2022-09-23T14:59:09.166Z,18.61
2022-09-23T15:04:36.497Z,18.03
2022-09-23T15:09:39.982Z,16.05
2022-09-23T15:15:06.514Z,15.05
2022-09-23T15:20:11.814Z,14.81
2022-09-23T15:25:15.972Z,14.91
2022-09-23T15:30:36.118Z,15.19
2022-09-23T15:46:52.140Z,15.57
2022-09-23T15:51:52.186Z,15.69
2022-09-23T15:56:54.157Z,15.88
2022-09-23T16:02:12.597Z,15.84
2022-09-23T16:07:17.744Z,16.10
2022-09-23T16:12:22.619Z,15.97
2022-09-23T16:17:29.489Z,16.03
2022-09-23T16:22:33.126Z,16.13
2022-09-23T16:27:34.760Z,15.97
2022-09-23T16:32:46.123Z,16.19
2022-09-23T16:37:58.056Z,15.92
2022-09-23T16:43:14.495Z,15.79
2022-09-23T16:48:13.773Z,15.89
2022-09-23T16:53:19.974Z,15.79
2022-09-23T16:59:21.719Z,15.85
2022-09-23T17:05:04.366Z,15.51
2022-09-23T17:15:35.666Z,15.55
2022-09-23T17:21:03.430Z,15.54
2022-09-23T17:26:13.706Z,15.58
2022-09-23T17:31:14.890Z,15.42
2022-09-23T17:36:15.172Z,15.48
2022-09-23T17:41:42.562Z,15.63
2022-09-23T17:52:34.776Z,15.47
2022-09-23T17:57:39.279Z,15.16
2022-09-23T18:03:03.635Z,15.11
2022-09-23T18:08:33.190Z,14.96
2022-09-23T18:26:00.219Z,14.73
2022-09-23T18:31:46.676Z,14.48
2022-09-23T18:37:02.048Z,14.27
2022-09-23T18:42:24.417Z,14.44
2022-09-23T18:53:17.454Z,14.19
2022-09-23T18:58:26.458Z,13.87
2022-09-23T19:03:48.005Z,13.89
2022-09-23T19:09:05.459Z,14.14
2022-09-23T19:14:11.349Z,14.10
2022-09-23T19:19:55.608Z,14.21
2022-09-23T19:31:29.028Z,13.86
2022-09-23T19:36:34.704Z,13.77
2022-09-23T19:41:35.598Z,13.70
2022-09-23T19:46:37.575Z,13.62
2022-09-23T19:51:39.171Z,13.59
2022-09-23T19:56:47.229Z,13.67
2022-09-23T20:02:09.622Z,13.54
2022-09-23T20:13:27.995Z,13.32
2022-09-23T20:18:26.768Z,13.70
2022-09-23T20:23:32.227Z,13.52
2022-09-23T20:28:33.953Z,13.44
2022-09-23T20:33:31.315Z,13.70
2022-09-23T20:38:33.765Z,13.71
2022-09-23T20:43:34.561Z,13.66
2022-09-23T20:48:32.395Z,13.43
2022-09-23T20:53:30.691Z,13.36
2022-09-23T20:58:30.365Z,12.93
2022-09-23T21:03:29.622Z,12.92
2022-09-23T21:08:31.271Z,13.05
2022-09-23T21:13:31.658Z,13.20
2022-09-23T21:18:32.585Z,12.87
2022-09-23T21:23:35.461Z,12.92
2022-09-23T21:28:37.905Z,12.92
2022-09-23T21:33:37.607Z,12.94
2022-09-23T21:38:39.389Z,12.86
2022-09-23T21:43:38.701Z,12.94
2022-09-23T21:48:42.015Z,13.33
2022-09-23T21:53:42.579Z,13.25
2022-09-23T21:58:43.541Z,13.34
2022-09-23T22:03:46.874Z,13.10
2022-09-23T22:08:49.945Z,12.56
2022-09-23T22:13:48.455Z,12.88
2022-09-23T22:18:46.082Z,12.68
2022-09-23T22:23:49.961Z,13.22
2022-09-23T22:29:07.545Z,13.23
2022-09-23T22:34:07.108Z,13.29
2022-09-23T22:39:07.031Z,12.98
2022-09-23T22:44:05.588Z,12.99
2022-09-23T22:49:09.230Z,12.75
2022-09-23T22:54:10.458Z,12.47
2022-09-23T22:59:12.750Z,12.54
2022-09-23T23:04:20.907Z,12.37
2022-09-23T23:09:24.519Z,12.58
2022-09-23T23:14:24.521Z,12.45
2022-09-23T23:19:24.828Z,12.51
2022-09-23T23:24:26.175Z,12.56
2022-09-23T23:29:26.293Z,12.37
2022-09-23T23:34:30.592Z,12.54
2022-09-23T23:39:28.820Z,12.32
2022-09-23T23:44:31.225Z,12.29
2022-09-23T23:49:34.132Z,12.15
2022-09-23T23:54:33.156Z,12.28
2022-09-23T23:59:34.498Z,12.04
